createdAt,value
2022-09-04T00:01:20.107Z,62.00
2022-09-04T00:03:57.302Z,61.70
2022-09-04T00:06:29.924Z,62.00
2022-09-04T00:12:08.888Z,62.30
2022-09-04T00:14:43.125Z,62.70
2022-09-04T00:17:17.692Z,62.80
2022-09-04T00:19:49.622Z,62.80
2022-09-04T00:22:29.548Z,62.80
2022-09-04T00:25:08.043Z,63.30
2022-09-04T00:27:45.285Z,63.60
2022-09-04T00:30:17.379Z,63.70
2022-09-04T00:32:53.082Z,63.70
2022-09-04T00:35:26.074Z,64.50
2022-09-04T00:37:59.355Z,64.60
2022-09-04T00:40:31.258Z,65.30
2022-09-04T00:43:23.273Z,65.50
2022-09-04T00:46:08.032Z,65.70
2022-09-04T00:49:00.329Z,65.90
2022-09-04T00:51:34.585Z,66.80
2022-09-04T00:54:39.031Z,66.40
2022-09-04T00:57:31.280Z,66.80
2022-09-04T01:00:10.947Z,67.20
2022-09-04T01:03:02.258Z,67.70
2022-09-04T01:05:46.170Z,68.30
2022-09-04T01:08:24.548Z,68.70
2022-09-04T01:11:08.161Z,68.80
2022-09-04T01:13:42.241Z,69.40
2022-09-04T01:16:16.865Z,69.60
2022-09-04T01:18:56.331Z,69.80
2022-09-04T01:21:57.960Z,70.50
2022-09-04T01:24:52.909Z,71.20
2022-09-04T01:27:27.641Z,71.50
2022-09-04T01:30:06.710Z,71.70
2022-09-04T01:32:45.254Z,72.20
2022-09-04T01:35:23.914Z,72.80
2022-09-04T01:38:01.068Z,74.00
2022-09-04T01:40:36.812Z,73.70
2022-09-04T01:43:11.553Z,74.00
2022-09-04T01:45:46.850Z,74.80
2022-09-04T01:48:18.139Z,75.50
2022-09-04T01:50:51.358Z,75.70
2022-09-04T01:53:25.912Z,76.30
2022-09-04T01:55:58.650Z,76.40
2022-09-04T01:58:38.726Z,77.10
2022-09-04T02:01:13.248Z,77.50
2022-09-04T02:03:50.303Z,77.90
2022-09-04T02:06:27.731Z,78.80
2022-09-04T02:12:09.525Z,79.70
2022-09-04T02:14:49.242Z,79.40
2022-09-04T02:17:22.881Z,81.40
2022-09-04T02:20:11.096Z,80.90
2022-09-04T02:22:45.862Z,81.00
2022-09-04T02:25:23.683Z,82.00
2022-09-04T02:28:07.116Z,82.70
2022-09-04T02:30:44.784Z,83.50
2022-09-04T02:33:21.670Z,83.90
2022-09-04T02:35:59.935Z,84.70
2022-09-04T02:38:33.518Z,84.40
2022-09-04T02:41:10.314Z,84.50
2022-09-04T02:43:54.638Z,84.90
2022-09-04T02:46:31.956Z,85.50
2022-09-04T02:49:13.253Z,85.70
2022-09-04T02:51:59.415Z,85.70
2022-09-04T02:54:41.818Z,85.70
2022-09-04T02:57:20.472Z,86.70
2022-09-04T03:00:03.491Z,87.20
2022-09-04T03:02:37.344Z,87.00
2022-09-04T03:05:13.482Z,87.20
2022-09-04T03:07:49.996Z,87.70
2022-09-04T03:10:20.773Z,88.00
2022-09-04T03:12:54.311Z,87.80
2022-09-04T03:15:29.057Z,88.10
2022-09-04T03:18:04.091Z,88.80
2022-09-04T03:20:40.450Z,89.70
2022-09-04T03:23:16.863Z,89.60
2022-09-04T03:26:14.751Z,89.80
2022-09-04T03:28:53.983Z,90.20
2022-09-04T03:31:30.760Z,90.30
2022-09-04T03:34:33.891Z,90.30
2022-09-04T03:37:15.693Z,90.80
2022-09-04T03:39:55.593Z,90.70
2022-09-04T03:42:34.763Z,90.90
2022-09-04T03:45:13.737Z,91.10
2022-09-04T03:47:48.773Z,91.00
2022-09-04T03:50:28.390Z,91.10
2022-09-04T03:53:06.357Z,91.10
2022-09-04T03:56:05.216Z,91.40
2022-09-04T03:58:41.475Z,91.40
2022-09-04T04:01:21.610Z,91.50
2022-09-04T04:04:21.559Z,91.40
2022-09-04T04:06:57.532Z,91.60
2022-09-04T04:09:54.298Z,91.60
2022-09-04T04:12:39.407Z,91.70
2022-09-04T04:15:24.246Z,91.90
2022-09-04T04:18:13.460Z,92.20
2022-09-04T04:20:47.303Z,92.40
2022-09-04T04:23:56.958Z,92.30
2022-09-04T04:26:38.337Z,92.50
2022-09-04T04:29:28.744Z,92.60
2022-09-04T04:32:11.797Z,92.50
2022-09-04T04:34:54.153Z,92.60
2022-09-04T04:37:35.345Z,92.70
2022-09-04T04:40:12.373Z,93.10
2022-09-04T04:42:49.474Z,93.20
2022-09-04T04:45:43.537Z,93.40
2022-09-04T04:48:43.024Z,93.40
2022-09-04T04:51:26.606Z,93.40
2022-09-04T04:54:06.157Z,93.60
2022-09-04T04:56:47.322Z,93.40
2022-09-04T04:59:24.023Z,93.30
2022-09-04T05:02:04.860Z,93.10
2022-09-04T05:04:46.014Z,92.80
2022-09-04T05:07:28.276Z,92.50
2022-09-04T05:10:02.824Z,92.20
2022-09-04T05:12:37.264Z,91.90
2022-09-04T05:15:14.408Z,91.50
2022-09-04T05:17:51.900Z,91.10
2022-09-04T05:20:27.616Z,90.60
2022-09-04T05:23:07.018Z,90.30
2022-09-04T05:25:41.966Z,89.70
2022-09-04T05:28:25.338Z,89.10
2022-09-04T05:31:02.224Z,88.20
2022-09-04T05:33:39.218Z,87.40
2022-09-04T05:36:14.453Z,86.10
2022-09-04T05:38:51.293Z,84.70
2022-09-04T05:41:36.150Z,83.60
2022-09-04T05:44:24.790Z,82.20
2022-09-04T05:47:05.978Z,80.80
2022-09-04T05:49:48.751Z,80.00
2022-09-04T05:52:35.496Z,79.10
2022-09-04T05:55:32.021Z,78.60
2022-09-04T05:58:39.401Z,78.30
2022-09-04T06:01:25.143Z,78.00
2022-09-04T06:04:17.040Z,77.30
2022-09-04T06:06:55.620Z,77.20
2022-09-04T06:09:32.827Z,77.30
2022-09-04T06:12:28.739Z,77.80
2022-09-04T06:15:11.697Z,78.30
2022-09-04T06:17:58.920Z,78.70
2022-09-04T06:20:45.630Z,78.40
2022-09-04T06:23:28.492Z,78.60
2022-09-04T06:26:22.945Z,77.50
2022-09-04T06:29:15.159Z,76.60
2022-09-04T06:31:54.972Z,74.80
2022-09-04T06:34:39.682Z,73.70
2022-09-04T06:37:18.126Z,72.70
2022-09-04T06:40:12.188Z,71.50
2022-09-04T06:43:04.803Z,71.00
2022-09-04T06:45:46.498Z,70.60
2022-09-04T06:48:27.236Z,69.70
2022-09-04T06:51:08.048Z,66.40
2022-09-04T06:53:42.546Z,63.00
2022-09-04T06:56:34.595Z,61.60
2022-09-04T06:59:37.004Z,56.00
2022-09-04T07:02:22.024Z,49.70
2022-09-04T07:05:04.026Z,46.40
2022-09-04T07:07:42.109Z,45.40
2022-09-04T07:10:15.467Z,42.60
2022-09-04T07:13:09.457Z,38.40
2022-09-04T07:16:11.290Z,37.40
2022-09-04T07:18:55.703Z,35.60
2022-09-04T07:21:30.757Z,33.20
2022-09-04T07:24:08.044Z,30.70
2022-09-04T07:26:44.127Z,29.40
2022-09-04T07:29:30.853Z,29.00
2022-09-04T07:32:05.531Z,28.80
2022-09-04T07:34:44.772Z,29.50
2022-09-04T07:37:27.860Z,29.20
2022-09-04T07:40:10.107Z,28.50
2022-09-04T07:42:46.864Z,28.40
2022-09-04T07:45:25.911Z,27.40
2022-09-04T07:48:05.331Z,27.70
2022-09-04T07:50:38.206Z,27.00
2022-09-04T07:53:24.972Z,27.10
2022-09-04T07:56:00.073Z,27.10
2022-09-04T07:58:58.491Z,26.60
2022-09-04T08:01:54.115Z,26.20
2022-09-04T08:04:55.402Z,25.80
2022-09-04T08:07:48.774Z,25.50
2022-09-04T08:10:31.577Z,25.30
2022-09-04T08:13:33.652Z,25.30
2022-09-04T08:16:08.234Z,25.10
2022-09-04T08:19:01.619Z,24.80
2022-09-04T08:21:32.161Z,24.80
2022-09-04T08:24:22.473Z,24.50
2022-09-04T08:27:05.379Z,24.50
2022-09-04T08:29:52.856Z,24.50
2022-09-04T08:32:43.129Z,24.60
2022-09-04T08:35:26.067Z,24.90
2022-09-04T08:38:25.529Z,25.20
2022-09-04T08:41:30.019Z,25.80
2022-09-04T08:44:23.891Z,26.30
2022-09-04T08:47:14.149Z,26.30
2022-09-04T08:50:19.003Z,26.00
2022-09-04T08:53:16.983Z,25.30
2022-09-04T08:55:56.775Z,24.60
2022-09-04T08:59:17.596Z,24.30
2022-09-04T09:02:08.288Z,23.80
2022-09-04T09:05:14.974Z,23.70
2022-09-04T09:08:31.822Z,23.60
2022-09-04T09:11:39.465Z,23.10
2022-09-04T09:14:49.080Z,22.70
2022-09-04T09:17:37.463Z,23.20
2022-09-04T09:20:27.905Z,22.90
2022-09-04T09:23:21.062Z,22.80
2022-09-04T09:26:12.796Z,22.70
2022-09-04T09:29:20.406Z,22.60
2022-09-04T09:32:29.069Z,22.30
2022-09-04T09:35:51.847Z,22.30
2022-09-04T09:38:48.657Z,22.00
2022-09-04T09:41:56.086Z,21.50
2022-09-04T09:44:55.435Z,21.70
2022-09-04T09:47:53.590Z,21.50
2022-09-04T09:50:56.568Z,21.60
2022-09-04T09:54:13.155Z,21.40
2022-09-04T09:57:33.417Z,21.30
2022-09-04T10:00:17.325Z,21.30
2022-09-04T10:03:15.938Z,21.30
2022-09-04T10:06:17.616Z,21.40
2022-09-04T10:09:22.392Z,21.50
2022-09-04T10:12:12.559Z,21.60
2022-09-04T10:15:25.214Z,21.60
2022-09-04T10:18:12.192Z,21.40
2022-09-04T10:21:10.440Z,21.20
2022-09-04T10:24:06.126Z,21.20
2022-09-04T10:27:04.204Z,21.40
2022-09-04T10:29:45.708Z,21.20
2022-09-04T10:32:51.668Z,21.00
2022-09-04T10:35:26.318Z,21.10
2022-09-04T10:38:31.456Z,21.10
2022-09-04T10:41:26.252Z,21.10
2022-09-04T10:44:15.206Z,21.30
2022-09-04T10:46:55.172Z,21.60
2022-09-04T10:49:52.349Z,21.10
2022-09-04T10:53:01.295Z,21.00
2022-09-04T10:55:57.283Z,20.90
2022-09-04T10:58:40.212Z,21.00
2022-09-04T11:01:30.298Z,21.00
2022-09-04T11:04:18.980Z,21.20
2022-09-04T11:07:18.896Z,21.00
2022-09-04T11:10:16.872Z,20.90
2022-09-04T11:13:04.910Z,21.10
2022-09-04T11:16:02.353Z,21.20
2022-09-04T11:18:59.794Z,21.20
2022-09-04T11:22:12.922Z,21.50
2022-09-04T11:25:27.255Z,21.70
2022-09-04T11:28:13.784Z,21.60
2022-09-04T11:31:07.321Z,21.70
2022-09-04T11:34:05.430Z,21.60
2022-09-04T11:37:16.284Z,21.40
2022-09-04T11:40:14.436Z,21.70
2022-09-04T11:42:57.899Z,22.10
2022-09-04T11:45:59.527Z,22.40
2022-09-04T11:48:54.548Z,22.40
2022-09-04T11:52:04.093Z,22.70
2022-09-04T11:55:01.046Z,22.50
2022-09-04T11:57:41.828Z,22.10
2022-09-04T12:00:12.882Z,21.90
2022-09-04T12:03:10.535Z,22.70
2022-09-04T12:05:56.005Z,23.00
2022-09-04T12:08:38.666Z,22.60
2022-09-04T12:11:45.918Z,22.50
2022-09-04T12:14:32.822Z,22.20
2022-09-04T12:17:33.585Z,22.30
2022-09-04T12:20:34.159Z,22.40
2022-09-04T12:23:19.160Z,22.20
2022-09-04T12:26:36.219Z,23.10
2022-09-04T12:29:53.716Z,23.30
2022-09-04T12:32:45.485Z,23.20
2022-09-04T12:35:43.892Z,22.90
2022-09-04T12:38:26.427Z,23.30
2022-09-04T12:41:03.300Z,23.40
2022-09-04T12:43:45.223Z,23.20
2022-09-04T12:46:35.722Z,23.90
2022-09-04T12:49:24.468Z,23.50
2022-09-04T12:51:58.242Z,23.60
2022-09-04T12:54:38.720Z,23.20
2022-09-04T12:57:24.521Z,23.30
2022-09-04T13:00:05.752Z,23.50
2022-09-04T13:02:51.995Z,23.60
2022-09-04T13:05:35.356Z,24.00
2022-09-04T13:08:18.908Z,23.90
2022-09-04T13:11:00.156Z,23.90
2022-09-04T13:13:42.271Z,24.00
2022-09-04T13:16:17.277Z,24.30
2022-09-04T13:19:00.713Z,25.20
2022-09-04T13:21:42.544Z,25.00
2022-09-04T13:24:19.998Z,25.80
2022-09-04T13:27:03.643Z,26.20
2022-09-04T13:29:54.779Z,26.70
2022-09-04T13:32:38.552Z,27.10
2022-09-04T13:35:19.425Z,27.80
2022-09-04T13:38:07.880Z,28.30
2022-09-04T13:40:54.997Z,29.00
2022-09-04T13:43:49.579Z,28.90
2022-09-04T13:46:22.067Z,29.30
2022-09-04T13:48:52.905Z,29.50
2022-09-04T13:51:29.939Z,29.50
2022-09-04T13:54:06.554Z,29.50
2022-09-04T13:57:04.358Z,29.40
2022-09-04T13:59:33.225Z,29.60
2022-09-04T14:02:08.611Z,30.00
2022-09-04T14:04:43.904Z,30.50
2022-09-04T14:07:19.546Z,31.00
2022-09-04T14:09:50.774Z,31.10
2022-09-04T14:12:43.046Z,31.70
2022-09-04T14:15:40.220Z,31.90
2022-09-04T14:18:27.949Z,31.60
2022-09-04T14:21:01.468Z,32.20
2022-09-04T14:23:47.371Z,32.30
2022-09-04T14:26:25.814Z,32.90
2022-09-04T14:29:00.670Z,33.10
2022-09-04T14:31:35.261Z,33.60
2022-09-04T14:34:15.082Z,33.90
2022-09-04T14:36:54.464Z,34.40
2022-09-04T14:39:30.800Z,34.90
2022-09-04T14:42:23.456Z,35.60
2022-09-04T14:45:09.493Z,35.20
2022-09-04T14:47:45.041Z,35.60
2022-09-04T14:50:15.071Z,35.80
2022-09-04T14:52:46.627Z,35.60
2022-09-04T14:55:19.100Z,36.10
2022-09-04T14:57:52.247Z,36.10
2022-09-04T15:00:23.434Z,36.00
2022-09-04T15:03:00.901Z,36.00
2022-09-04T15:05:34.122Z,36.50
2022-09-04T15:08:07.067Z,36.60
2022-09-04T15:10:47.539Z,37.10
2022-09-04T15:13:38.848Z,37.50
2022-09-04T15:16:18.335Z,37.60
2022-09-04T15:18:56.692Z,37.70
2022-09-04T15:21:31.932Z,37.60
2022-09-04T15:24:13.192Z,37.80
2022-09-04T15:26:49.447Z,38.00
2022-09-04T15:29:27.183Z,38.30
2022-09-04T15:32:01.531Z,38.50
2022-09-04T15:34:30.484Z,39.10
2022-09-04T15:37:22.820Z,39.30
2022-09-04T15:39:59.063Z,39.90
2022-09-04T15:42:42.985Z,39.80
2022-09-04T15:45:22.618Z,40.00
2022-09-04T15:48:11.193Z,40.10
2022-09-04T15:50:51.318Z,40.30
2022-09-04T15:53:27.210Z,40.60
2022-09-04T15:56:09.608Z,40.40
2022-09-04T15:58:53.130Z,40.60
2022-09-04T16:01:27.671Z,40.70
2022-09-04T16:04:03.409Z,41.30
2022-09-04T16:06:39.889Z,41.20
2022-09-04T16:09:13.263Z,41.50
2022-09-04T16:11:46.784Z,42.00
2022-09-04T16:14:24.049Z,42.00
2022-09-04T16:16:55.404Z,42.40
2022-09-04T16:19:30.046Z,42.60
2022-09-04T16:22:11.148Z,42.40
2022-09-04T16:24:43.714Z,42.40
2022-09-04T16:27:15.316Z,42.50
2022-09-04T16:29:51.101Z,42.60
2022-09-04T16:32:24.159Z,42.60
2022-09-04T16:34:59.109Z,42.40
2022-09-04T16:37:32.549Z,42.60
2022-09-04T16:40:13.473Z,42.90
2022-09-04T16:42:47.027Z,43.00
2022-09-04T16:45:22.491Z,43.20
2022-09-04T16:47:55.575Z,43.10
2022-09-04T16:50:28.845Z,43.20
2022-09-04T16:53:14.409Z,43.00
2022-09-04T16:55:50.556Z,43.20
2022-09-04T16:58:35.144Z,43.60
2022-09-04T17:01:15.604Z,43.60
2022-09-04T17:04:13.922Z,43.60
2022-09-04T17:07:02.680Z,43.80
2022-09-04T17:09:51.138Z,44.10
2022-09-04T17:12:28.898Z,44.20
2022-09-04T17:15:07.521Z,44.60
2022-09-04T17:17:42.547Z,44.70
2022-09-04T17:20:13.805Z,45.00
2022-09-04T17:29:00.455Z,45.20
2022-09-04T17:29:11.753Z,45.60
2022-09-04T17:29:28.135Z,46.30
2022-09-04T17:31:54.440Z,46.10
2022-09-04T17:40:36.758Z,46.30
2022-09-04T17:40:44.299Z,46.10
2022-09-04T17:41:36.791Z,46.70
2022-09-04T17:43:32.946Z,46.70
2022-09-04T17:46:24.515Z,47.30
2022-09-04T17:48:53.491Z,47.70
2022-09-04T17:51:26.954Z,48.80
2022-09-04T17:53:59.713Z,49.00
2022-09-04T17:56:32.381Z,50.00
2022-09-04T17:59:06.345Z,49.80
2022-09-04T18:01:40.214Z,50.60
2022-09-04T18:04:22.599Z,50.60
2022-09-04T18:07:53.128Z,51.00
2022-09-04T18:10:01.433Z,51.20
2022-09-04T18:12:36.226Z,51.40
2022-09-04T18:15:32.341Z,51.50
2022-09-04T18:18:06.526Z,51.90
2022-09-04T18:20:39.351Z,51.80
2022-09-04T18:23:50.915Z,52.00
2022-09-04T18:26:40.332Z,52.10
2022-09-04T18:31:41.592Z,52.30
2022-09-04T18:37:16.621Z,52.70
2022-09-04T18:37:26.907Z,52.50
2022-09-04T18:38:49.114Z,53.70
2022-09-04T18:50:22.701Z,54.10
2022-09-04T18:50:33.451Z,54.20
2022-09-04T18:50:44.806Z,54.50
2022-09-04T18:51:12.527Z,54.40
2022-09-04T18:53:27.718Z,54.20
2022-09-04T18:56:01.014Z,54.30
2022-09-04T18:58:39.840Z,54.30
2022-09-04T19:01:14.403Z,54.30
2022-09-04T19:03:47.025Z,54.40
2022-09-04T19:06:19.305Z,54.50
2022-09-04T19:08:51.277Z,54.50
2022-09-04T19:11:26.649Z,54.40
2022-09-04T19:14:10.539Z,54.70
2022-09-04T19:16:41.712Z,54.70
2022-09-04T19:19:17.485Z,54.80
2022-09-04T19:21:58.243Z,55.00
2022-09-04T19:24:34.339Z,55.20
2022-09-04T19:27:27.714Z,55.50
2022-09-04T19:30:18.203Z,55.40
2022-09-04T19:33:02.643Z,55.80
2022-09-04T19:35:36.904Z,55.80
2022-09-04T19:42:20.119Z,56.10
2022-09-04T19:46:06.361Z,56.10
2022-09-04T19:46:08.362Z,56.60
2022-09-04T19:47:07.800Z,57.00
2022-09-04T19:53:11.469Z,56.60
2022-09-04T19:53:30.980Z,56.80
2022-09-04T19:55:47.637Z,56.80
2022-09-04T19:58:20.223Z,57.30
2022-09-04T20:00:57.503Z,57.20
2022-09-04T20:03:32.676Z,57.60
2022-09-04T20:06:07.725Z,57.80
2022-09-04T20:08:54.015Z,58.30
2022-09-04T20:11:28.609Z,58.50
2022-09-04T20:14:21.810Z,58.60
2022-09-04T20:17:01.218Z,58.90
2022-09-04T20:19:38.759Z,59.10
2022-09-04T20:22:15.458Z,59.50
2022-09-04T20:25:01.194Z,59.70
2022-09-04T20:27:36.253Z,59.90
2022-09-04T20:30:11.956Z,60.00
2022-09-04T20:32:56.238Z,60.50
2022-09-04T20:35:33.824Z,60.50
2022-09-04T20:38:12.451Z,60.90
2022-09-04T20:40:44.600Z,61.20
2022-09-04T20:43:21.396Z,61.20
2022-09-04T20:48:02.307Z,61.60
2022-09-04T20:52:58.854Z,61.60
2022-09-04T20:53:00.036Z,61.80
2022-09-04T20:55:04.602Z,62.10
2022-09-04T21:00:50.188Z,62.40
2022-09-04T21:03:22.836Z,62.60
2022-09-04T21:03:56.456Z,63.00
2022-09-04T21:06:34.804Z,63.00
2022-09-04T21:09:17.785Z,63.60
2022-09-04T21:11:48.448Z,63.60
2022-09-04T21:14:26.846Z,63.70
2022-09-04T21:17:33.526Z,64.00
2022-09-04T21:20:59.335Z,64.70
2022-09-04T21:24:03.861Z,65.10
2022-09-04T21:26:57.476Z,66.00
2022-09-04T21:29:48.416Z,65.90
2022-09-04T21:32:41.282Z,66.00
2022-09-04T21:35:16.921Z,66.60
2022-09-04T21:37:56.310Z,67.30
2022-09-04T21:40:52.690Z,67.40
2022-09-04T21:43:47.046Z,67.70
2022-09-04T21:46:37.899Z,68.10
2022-09-04T21:49:36.870Z,68.30
2022-09-04T21:52:25.962Z,69.10
2022-09-04T21:57:45.724Z,69.20
2022-09-04T22:02:26.918Z,69.20
2022-09-04T22:02:41.328Z,69.30
2022-09-04T22:04:21.394Z,70.10
2022-09-04T22:07:13.030Z,70.50
2022-09-04T22:13:32.522Z,71.40
2022-09-04T22:13:38.855Z,71.60
2022-09-04T22:16:03.534Z,72.00
2022-09-04T22:18:59.714Z,72.00
2022-09-04T22:21:41.646Z,72.10
2022-09-04T22:24:47.998Z,72.30
2022-09-04T22:27:58.680Z,72.70
2022-09-04T22:30:36.190Z,72.90
2022-09-04T22:34:14.526Z,73.40
2022-09-04T22:37:05.189Z,73.50
2022-09-04T22:40:08.033Z,74.00
2022-09-04T22:42:48.407Z,74.20
2022-09-04T22:45:56.109Z,74.70
2022-09-04T22:48:43.100Z,74.70
2022-09-04T22:51:28.557Z,74.70
2022-09-04T22:54:17.661Z,75.10
2022-09-04T22:56:53.655Z,75.20
2022-09-04T22:59:47.441Z,75.50
2022-09-04T23:03:09.260Z,75.70
2022-09-04T23:08:35.893Z,76.00
2022-09-04T23:13:49.326Z,75.50
2022-09-04T23:13:50.173Z,75.50
2022-09-04T23:15:33.057Z,75.50
2022-09-04T23:20:35.788Z,75.50
2022-09-04T23:26:44.301Z,76.10
2022-09-04T23:26:52.826Z,76.40
2022-09-04T23:27:29.492Z,76.50
2022-09-04T23:30:05.792Z,77.10
2022-09-04T23:33:16.045Z,77.00
2022-09-04T23:36:16.733Z,77.60
2022-09-04T23:39:18.021Z,77.60
2022-09-04T23:41:57.477Z,77.80
2022-09-04T23:44:57.870Z,77.90
2022-09-04T23:47:49.466Z,78.20
2022-09-04T23:50:32.991Z,78.90
2022-09-04T23:53:15.359Z,79.30
2022-09-04T23:55:57.265Z,79.90
2022-09-04T23:58:58.135Z,79.80
